Time;durP1;ratioP1;P1;durP2;ratioP2;P2;SDS_P1;SDS_P2;PMS_P1;PMS_P2;Temp;Humidity;BMP_temperature;BMP_pressure;BME280_temperature;BME280_humidity;BME280_pressure;Samples;Min_cycle;Max_cycle;Signal;HPM_P1;HPM_P2
2024/03/30 00:01:58;;;;;;;1.00;0.60;;;22.60;54.20;;;;;;4995097;28;20173;-68
2024/03/30 00:04:24;;;;;;;0.80;0.60;;;22.60;54.30;;;;;;4994846;28;20192;-68
2024/03/30 00:06:50;;;;;;;0.90;0.70;;;22.60;54.30;;;;;;4994488;28;20204;-68
2024/03/30 00:09:16;;;;;;;0.80;0.57;;;22.60;54.20;;;;;;4994406;28;20671;-68
2024/03/30 00:11:42;;;;;;;1.00;0.60;;;22.60;54.50;;;;;;4994552;28;20573;-68
2024/03/30 00:14:07;;;;;;;1.00;0.60;;;22.60;54.20;;;;;;4994267;28;20408;-68
2024/03/30 00:16:33;;;;;;;0.90;0.70;;;22.60;54.20;;;;;;4994457;28;20242;-68
2024/03/30 00:18:59;;;;;;;0.83;0.60;;;22.60;54.20;;;;;;4976531;28;20169;-67
2024/03/30 00:21:25;;;;;;;0.90;0.60;;;22.60;54.20;;;;;;4994334;28;20302;-67
2024/03/30 00:23:50;;;;;;;0.87;0.60;;;22.60;54.20;;;;;;4994126;28;20404;-68
2024/03/30 00:26:16;;;;;;;0.90;0.70;;;22.60;54.30;;;;;;4993873;28;20169;-69
2024/03/30 00:28:42;;;;;;;1.30;0.50;;;22.60;54.20;;;;;;4994029;28;20251;-66
2024/03/30 00:31:07;;;;;;;0.90;0.60;;;22.60;54.30;;;;;;4993932;28;20192;-68
2024/03/30 00:33:33;;;;;;;0.80;0.60;;;22.60;54.20;;;;;;4994305;28;20248;-68
2024/03/30 00:35:59;;;;;;;0.90;0.60;;;22.60;54.20;;;;;;4993997;28;20181;-68
2024/03/30 00:38:25;;;;;;;0.90;0.70;;;22.60;54.20;;;;;;4993875;28;20986;-68
2024/03/30 00:40:51;;;;;;;1.17;0.70;;;22.60;54.20;;;;;;4993703;28;20216;-68
2024/03/30 00:43:16;;;;;;;0.80;0.60;;;22.60;54.30;;;;;;4994102;28;20819;-68
2024/03/30 00:45:45;;;;;;;1.00;0.70;;;22.60;54.30;;;;;;4993526;28;20640;-68
2024/03/30 00:48:11;;;;;;;1.00;0.60;;;22.60;54.20;;;;;;4992591;28;20200;-68
2024/03/30 00:50:37;;;;;;;0.80;0.60;;;22.60;54.20;;;;;;4993441;28;20464;-68
2024/03/30 00:53:03;;;;;;;1.03;0.60;;;22.60;54.20;;;;;;4993684;28;20401;-68
2024/03/30 00:55:29;;;;;;;0.90;0.70;;;22.60;54.20;;;;;;4993528;28;20172;-67
2024/03/30 00:57:54;;;;;;;0.90;0.60;;;22.60;54.20;;;;;;4993213;28;20169;-68
2024/03/30 01:00:21;;;;;;;0.97;0.63;;;22.60;54.20;;;;;;4993290;28;20520;-68
2024/03/30 01:02:46;;;;;;;0.80;0.60;;;22.60;54.20;;;;;;4975932;28;20173;-68
2024/03/30 01:05:12;;;;;;;0.90;0.60;;;22.50;54.20;;;;;;4993401;28;20420;-69
2024/03/30 01:07:38;;;;;;;0.80;0.70;;;22.50;54.20;;;;;;4993292;28;20463;-68
2024/03/30 01:10:06;;;;;;;0.80;0.60;;;22.50;54.20;;;;;;4993474;28;20205;-68
2024/03/30 01:12:32;;;;;;;0.80;0.60;;;22.50;54.20;;;;;;4993769;28;20184;-69
2024/03/30 01:14:58;;;;;;;0.90;0.60;;;22.50;54.20;;;;;;4992946;28;20508;-68
2024/03/30 01:17:24;;;;;;;0.90;0.70;;;22.50;54.20;;;;;;4993083;28;20432;-68
2024/03/30 01:19:50;;;;;;;0.90;0.60;;;22.50;54.20;;;;;;4993426;28;20205;-68
2024/03/30 01:22:16;;;;;;;0.90;0.60;;;22.50;54.20;;;;;;4992962;28;20419;-68
2024/03/30 01:24:42;;;;;;;0.90;0.60;;;22.50;54.20;;;;;;4993116;28;20411;-68
2024/03/30 01:27:14;;;;;;;0.90;0.70;;;22.50;54.20;;;;;;4992643;28;20404;-67
2024/03/30 01:29:41;;;;;;;0.80;0.60;;;22.50;54.20;;;;;;4992759;28;20729;-68
2024/03/30 01:32:07;;;;;;;0.90;0.60;;;22.50;54.30;;;;;;4975550;28;20915;-68
2024/03/30 01:34:33;;;;;;;0.90;0.70;;;22.50;54.20;;;;;;4992977;28;20416;-68
2024/03/30 01:36:59;;;;;;;0.87;0.63;;;22.50;54.20;;;;;;4992760;28;20414;-66
2024/03/30 01:39:24;;;;;;;0.80;0.60;;;22.50;54.20;;;;;;4992782;28;20241;-68
2024/03/30 01:41:50;;;;;;;0.80;0.60;;;22.50;54.20;;;;;;4992685;28;20655;-68
2024/03/30 01:44:15;;;;;;;0.90;0.70;;;22.50;54.30;;;;;;4992535;28;20551;-68
2024/03/30 01:46:41;;;;;;;0.80;0.60;;;22.50;54.20;;;;;;4992609;28;20267;-68
2024/03/30 01:49:08;;;;;;;0.90;0.60;;;22.50;54.30;;;;;;4992818;28;20195;-68
2024/03/30 01:51:34;;;;;;;0.90;0.60;;;22.50;54.20;;;;;;4992516;28;20527;-69
2024/03/30 01:54:01;;;;;;;0.80;0.60;;;22.50;54.20;;;;;;4992490;28;20408;-68
2024/03/30 01:56:28;;;;;;;0.80;0.60;;;22.50;54.20;;;;;;4992436;28;20408;-66
2024/03/30 01:58:54;;;;;;;0.80;0.60;;;22.50;54.20;;;;;;4992244;28;20412;-67
2024/03/30 02:01:20;;;;;;;0.80;0.60;;;22.50;54.30;;;;;;4992269;28;20467;-68
2024/03/30 02:03:49;;;;;;;0.80;0.60;;;22.50;54.20;;;;;;4992423;28;20412;-68
2024/03/30 02:06:15;;;;;;;1.13;0.70;;;22.50;54.20;;;;;;4992433;28;20473;-67
2024/03/30 02:08:41;;;;;;;0.90;0.70;;;22.50;54.20;;;;;;4992587;28;20416;-68
2024/03/30 02:11:08;;;;;;;0.80;0.60;;;22.50;54.20;;;;;;4992446;28;20702;-68
2024/03/30 02:13:34;;;;;;;0.80;0.60;;;22.50;54.20;;;;;;4992606;28;20962;-69
2024/03/30 02:15:59;;;;;;;0.93;0.63;;;22.50;54.20;;;;;;4992269;28;20404;-68
2024/03/30 02:18:25;;;;;;;0.80;0.53;;;22.50;54.20;;;;;;4992143;28;20424;-68
2024/03/30 02:20:51;;;;;;;1.10;0.70;;;22.50;54.20;;;;;;4992090;28;20217;-68
2024/03/30 02:23:16;;;;;;;0.90;0.70;;;22.50;54.20;;;;;;4991939;28;20181;-68
2024/03/30 02:25:42;;;;;;;0.97;0.67;;;22.50;54.20;;;;;;4991899;28;20545;-69
2024/03/30 02:28:07;;;;;;;0.90;0.70;;;22.50;54.20;;;;;;4991923;28;20173;-67
2024/03/30 02:30:33;;;;;;;0.90;0.60;;;22.50;54.20;;;;;;4992226;28;20196;-68
2024/03/30 02:33:00;;;;;;;0.90;0.67;;;22.50;54.20;;;;;;4992476;28;20671;-67
2024/03/30 02:35:26;;;;;;;0.80;0.60;;;22.50;54.20;;;;;;4992159;28;20426;-68
2024/03/30 02:37:53;;;;;;;0.97;0.60;;;22.50;54.10;;;;;;4992335;28;20854;-68
2024/03/30 02:40:27;;;;;;;0.90;0.70;;;22.60;54.20;;;;;;4992164;28;20572;-69
2024/03/30 02:42:52;;;;;;;0.87;0.70;;;22.60;54.20;;;;;;4992296;28;20913;-68
2024/03/30 02:45:18;;;;;;;0.93;0.60;;;22.50;54.10;;;;;;4991987;28;20408;-68
2024/03/30 02:47:44;;;;;;;0.80;0.60;;;22.50;54.10;;;;;;4991911;28;20526;-68
2024/03/30 02:50:09;;;;;;;0.90;0.70;;;22.60;54.20;;;;;;4991717;28;20773;-67
2024/03/30 02:52:35;;;;;;;0.80;0.60;;;22.60;54.20;;;;;;4974773;28;20218;-69
2024/03/30 02:55:00;;;;;;;0.90;0.70;;;22.60;54.20;;;;;;4991717;28;20614;-68
2024/03/30 02:57:26;;;;;;;0.80;0.60;;;22.60;54.20;;;;;;4974446;28;20181;-69
2024/03/30 02:59:52;;;;;;;0.90;0.70;;;22.60;54.10;;;;;;4991848;28;20220;-68
2024/03/30 03:02:17;;;;;;;1.00;0.70;;;22.50;54.10;;;;;;4991802;28;20284;-67
2024/03/30 03:04:43;;;;;;;0.90;0.70;;;22.50;54.00;;;;;;4992208;28;20755;-67
2024/03/30 03:07:09;;;;;;;0.97;0.70;;;22.60;54.10;;;;;;4991982;28;20200;-68
2024/03/30 03:09:35;;;;;;;0.90;0.60;;;22.50;54.00;;;;;;4991981;28;20699;-67
2024/03/30 03:12:04;;;;;;;1.10;0.80;;;22.50;54.00;;;;;;4995070;28;20181;-69
2024/03/30 03:14:29;;;;;;;0.90;0.63;;;22.60;54.10;;;;;;4995445;28;20843;-69
2024/03/30 03:16:55;;;;;;;0.90;0.70;;;22.50;54.00;;;;;;4995667;28;20424;-69
2024/03/30 03:19:21;;;;;;;0.80;0.60;;;22.50;54.10;;;;;;4995084;28;20209;-68
2024/03/30 03:21:46;;;;;;;0.80;0.60;;;22.50;54.10;;;;;;4995416;28;20263;-68
2024/03/30 03:24:13;;;;;;;0.80;0.60;;;22.50;54.10;;;;;;4995188;28;20176;-68
2024/03/30 03:26:39;;;;;;;0.90;0.60;;;22.50;54.10;;;;;;4995211;28;20177;-67
2024/03/30 03:29:05;;;;;;;0.90;0.60;;;22.50;54.10;;;;;;4995272;28;20937;-67
2024/03/30 03:31:30;;;;;;;1.00;0.70;;;22.50;54.10;;;;;;4995099;28;20223;-67
2024/03/30 03:33:56;;;;;;;1.20;0.77;;;22.50;54.10;;;;;;4994966;28;20173;-69
2024/03/30 03:36:21;;;;;;;0.87;0.63;;;22.50;54.10;;;;;;4994970;28;20173;-68
2024/03/30 03:38:47;;;;;;;1.10;0.67;;;22.50;54.10;;;;;;4995006;28;20192;-68
2024/03/30 03:41:12;;;;;;;0.90;0.70;;;22.50;54.10;;;;;;4977076;28;20712;-68
2024/03/30 03:43:40;;;;;;;1.00;0.60;;;22.50;54.20;;;;;;4995085;28;20181;-68
2024/03/30 03:46:06;;;;;;;0.90;0.70;;;22.50;54.10;;;;;;4994692;28;20299;-69
2024/03/30 03:48:32;;;;;;;0.90;0.70;;;22.50;54.10;;;;;;4995062;28;20444;-68
2024/03/30 03:50:57;;;;;;;0.80;0.60;;;22.50;54.10;;;;;;4994881;28;20474;-68
2024/03/30 03:53:23;;;;;;;0.90;0.60;;;22.40;54.00;;;;;;4995077;28;20188;-68
2024/03/30 03:55:48;;;;;;;0.80;0.60;;;22.40;54.10;;;;;;4994530;28;20549;-69
2024/03/30 03:58:14;;;;;;;0.90;0.60;;;22.40;54.10;;;;;;4994810;28;20667;-67
2024/03/30 04:00:40;;;;;;;0.90;0.60;;;22.40;54.10;;;;;;4994531;28;20209;-68
2024/03/30 04:03:06;;;;;;;0.83;0.60;;;22.50;54.20;;;;;;4994654;28;20228;-69
2024/03/30 04:05:32;;;;;;;0.90;0.67;;;22.40;54.10;;;;;;4994368;28;20200;-69
2024/03/30 04:07:58;;;;;;;0.90;0.70;;;22.40;54.10;;;;;;4994426;28;20908;-68
2024/03/30 04:10:24;;;;;;;0.90;0.67;;;22.40;54.10;;;;;;4994646;28;20494;-69
2024/03/30 04:12:50;;;;;;;0.87;0.77;;;22.40;54.10;;;;;;4994431;28;20227;-67
2024/03/30 04:15:17;;;;;;;0.90;0.70;;;22.40;54.10;;;;;;4994145;28;20173;-68
2024/03/30 04:17:43;;;;;;;0.90;0.60;;;22.40;54.10;;;;;;4994118;28;20511;-68
2024/03/30 04:20:09;;;;;;;0.90;0.70;;;22.40;54.10;;;;;;4994284;28;20557;-68
2024/03/30 04:22:35;;;;;;;0.87;0.63;;;22.40;54.60;;;;;;4993437;28;20412;-68
2024/03/30 04:25:00;;;;;;;0.80;0.60;;;22.40;54.10;;;;;;4994450;28;20447;-68
2024/03/30 04:27:26;;;;;;;0.90;0.70;;;22.40;54.10;;;;;;4994213;28;20177;-68
2024/03/30 04:29:52;;;;;;;1.30;0.60;;;22.40;54.10;;;;;;4994000;28;20196;-68
2024/03/30 04:32:17;;;;;;;0.90;0.70;;;22.40;54.10;;;;;;4993747;28;20413;-68
2024/03/30 04:34:44;;;;;;;0.80;0.60;;;22.40;54.10;;;;;;4993757;28;20177;-68
2024/03/30 04:37:10;;;;;;;0.90;0.67;;;22.40;54.10;;;;;;4993859;28;20177;-68
2024/03/30 04:39:35;;;;;;;1.00;0.70;;;22.40;54.10;;;;;;4993943;28;20852;-69
2024/03/30 04:42:01;;;;;;;1.13;0.80;;;22.40;54.10;;;;;;4993990;28;20200;-67
2024/03/30 04:44:27;;;;;;;0.90;0.70;;;22.40;54.10;;;;;;4993828;28;20188;-69
2024/03/30 04:46:52;;;;;;;0.90;0.70;;;22.40;54.10;;;;;;4994113;28;20165;-67
2024/03/30 04:49:18;;;;;;;1.00;0.80;;;22.40;54.10;;;;;;4993719;28;20447;-68
2024/03/30 04:51:44;;;;;;;1.00;0.90;;;22.40;54.10;;;;;;4993693;28;20197;-68
2024/03/30 04:54:09;;;;;;;0.83;0.60;;;22.40;54.10;;;;;;4993640;28;20219;-68
2024/03/30 04:56:35;;;;;;;0.80;0.60;;;22.40;54.10;;;;;;4993835;28;20551;-68
2024/03/30 04:59:00;;;;;;;0.90;0.60;;;22.40;54.10;;;;;;4993506;28;20263;-68
2024/03/30 05:01:26;;;;;;;0.90;0.70;;;22.40;54.10;;;;;;4993217;28;20286;-69
2024/03/30 05:03:52;;;;;;;0.80;0.60;;;22.40;54.10;;;;;;4993468;28;20224;-68
2024/03/30 05:06:17;;;;;;;0.80;0.60;;;22.40;54.10;;;;;;4975927;28;20189;-68
2024/03/30 05:08:43;;;;;;;0.80;0.60;;;22.40;54.10;;;;;;4993437;28;20173;-68
2024/03/30 05:11:08;;;;;;;0.90;0.60;;;22.40;54.10;;;;;;4993561;28;20688;-69
2024/03/30 05:13:34;;;;;;;1.10;0.70;;;22.40;54.10;;;;;;4993303;28;20211;-69
2024/03/30 05:15:59;;;;;;;1.00;0.70;;;22.40;54.10;;;;;;4993186;28;20561;-69
2024/03/30 05:18:27;;;;;;;0.90;0.60;;;22.40;54.10;;;;;;4993102;28;20255;-68
2024/03/30 05:21:01;;;;;;;0.90;0.60;;;22.40;54.10;;;;;;4993147;28;20224;-68
2024/03/30 05:23:29;;;;;;;1.17;0.50;;;22.40;54.10;;;;;;4975363;28;20503;-69
2024/03/30 05:25:57;;;;;;;0.90;0.70;;;22.40;54.10;;;;;;4993332;28;20459;-66
2024/03/30 05:28:27;;;;;;;0.90;0.70;;;22.40;54.10;;;;;;4993009;28;20893;-68
2024/03/30 05:30:54;;;;;;;0.90;0.70;;;22.40;54.10;;;;;;4992851;28;20431;-68
2024/03/30 05:33:22;;;;;;;0.97;0.70;;;22.40;54.10;;;;;;4992207;28;20791;-67
2024/03/30 05:35:49;;;;;;;0.90;0.70;;;22.40;54.10;;;;;;4975358;28;20575;-68
2024/03/30 05:38:16;;;;;;;0.90;0.70;;;22.40;54.10;;;;;;4992658;28;20447;-68
2024/03/30 05:40:42;;;;;;;0.80;0.60;;;22.40;54.10;;;;;;4992427;28;20519;-69
2024/03/30 05:43:09;;;;;;;0.90;0.70;;;22.40;54.10;;;;;;4992995;28;20412;-68
2024/03/30 05:45:37;;;;;;;0.90;0.70;;;22.40;54.10;;;;;;4992752;28;20404;-68
2024/03/30 05:48:03;;;;;;;0.80;0.60;;;22.40;54.10;;;;;;4992983;28;20416;-69
2024/03/30 05:50:29;;;;;;;0.87;0.60;;;22.40;54.10;;;;;;4992391;28;20467;-68
2024/03/30 05:52:55;;;;;;;0.87;0.67;;;22.30;54.10;;;;;;4992616;28;20403;-68
2024/03/30 05:55:21;;;;;;;0.93;0.67;;;22.30;54.00;;;;;;4992885;28;20423;-68
2024/03/30 05:57:47;;;;;;;1.00;0.60;;;22.30;54.00;;;;;;4992945;28;20220;-68
2024/03/30 06:00:14;;;;;;;1.03;0.60;;;22.30;54.00;;;;;;4992180;28;20455;-68
2024/03/30 06:02:41;;;;;;;0.90;0.70;;;22.30;54.10;;;;;;4992587;28;20396;-67
2024/03/30 06:05:07;;;;;;;0.90;0.70;;;22.30;54.10;;;;;;4992467;28;20404;-68
2024/03/30 06:07:34;;;;;;;0.83;0.60;;;22.30;54.00;;;;;;4992310;28;20919;-68
2024/03/30 06:10:00;;;;;;;0.80;0.60;;;22.30;54.00;;;;;;4992594;28;20436;-68
2024/03/30 06:12:26;;;;;;;0.80;0.60;;;22.30;54.10;;;;;;4992516;28;20420;-68
2024/03/30 06:14:52;;;;;;;0.87;0.60;;;22.30;54.10;;;;;;4992633;28;20413;-68
2024/03/30 06:17:17;;;;;;;0.90;0.60;;;22.30;54.10;;;;;;4992761;28;20751;-68
2024/03/30 06:19:43;;;;;;;0.93;0.60;;;22.30;54.10;;;;;;4992304;28;20200;-68
2024/03/30 06:22:09;;;;;;;0.90;0.60;;;22.30;54.10;;;;;;4992069;28;20176;-68
2024/03/30 06:24:36;;;;;;;1.00;0.60;;;22.30;54.10;;;;;;4992383;28;20177;-68
2024/03/30 06:27:03;;;;;;;0.93;0.70;;;22.30;54.10;;;;;;4992286;28;20169;-66
2024/03/30 06:29:29;;;;;;;0.80;0.70;;;22.40;54.10;;;;;;4992077;28;20496;-68
2024/03/30 06:31:55;;;;;;;0.80;0.60;;;22.30;54.10;;;;;;4992031;28;20416;-67
2024/03/30 06:34:20;;;;;;;0.80;0.60;;;22.30;54.10;;;;;;4992477;28;20200;-68
2024/03/30 06:36:46;;;;;;;1.00;0.63;;;22.30;54.10;;;;;;4992073;28;20181;-69
2024/03/30 06:39:11;;;;;;;1.00;0.70;;;22.40;54.20;;;;;;4992322;28;20553;-67
2024/03/30 06:44:38;;;;;;;0.97;0.77;;;22.40;54.20;;;;;;4951434;28;20177;-67
2024/03/30 06:47:04;;;;;;;0.80;0.60;;;22.30;54.10;;;;;;4987523;28;20424;-68
2024/03/30 06:49:29;;;;;;;0.90;0.70;;;22.40;54.20;;;;;;4995791;28;20198;-68
2024/03/30 06:51:55;;;;;;;0.90;0.70;;;22.40;54.20;;;;;;4996232;28;20180;-68
2024/03/30 06:54:21;;;;;;;1.37;0.77;;;22.40;54.20;;;;;;4995793;28;20200;-69
2024/03/30 06:56:46;;;;;;;0.90;0.77;;;22.40;54.30;;;;;;4961866;28;20180;-67
2024/03/30 06:59:12;;;;;;;1.00;0.60;;;22.40;54.20;;;;;;4995771;28;20227;-68
2024/03/30 07:01:38;;;;;;;0.80;0.70;;;22.40;54.10;;;;;;4995944;28;20291;-68
2024/03/30 07:04:04;;;;;;;0.90;0.70;;;22.40;54.20;;;;;;4995958;28;20494;-68
2024/03/30 07:06:30;;;;;;;0.80;0.60;;;22.40;54.10;;;;;;4995955;28;20180;-68
2024/03/30 07:08:58;;;;;;;1.00;0.67;;;22.40;54.10;;;;;;4995749;28;20208;-68
2024/03/30 07:11:24;;;;;;;1.00;0.80;;;22.40;54.10;;;;;;4995398;28;20353;-69
2024/03/30 07:13:50;;;;;;;0.80;0.70;;;22.40;54.10;;;;;;4995742;28;20420;-67
2024/03/30 07:16:16;;;;;;;1.00;0.70;;;22.40;54.20;;;;;;4995849;28;20780;-68
2024/03/30 07:18:44;;;;;;;1.00;0.70;;;22.40;54.10;;;;;;4995788;28;20173;-66
2024/03/30 07:21:09;;;;;;;0.80;0.60;;;22.40;54.10;;;;;;4995274;28;20212;-68
2024/03/30 07:23:35;;;;;;;1.00;0.70;;;22.40;54.10;;;;;;4995346;28;20408;-68
2024/03/30 07:26:04;;;;;;;0.80;0.60;;;22.40;54.10;;;;;;4995274;28;20553;-68
2024/03/30 07:28:30;;;;;;;1.00;0.70;;;22.40;54.10;;;;;;4977778;28;20188;-68
2024/03/30 07:31:00;;;;;;;1.10;0.70;;;22.40;54.10;;;;;;4995532;28;20432;-68
2024/03/30 07:33:26;;;;;;;0.80;0.60;;;22.40;54.10;;;;;;4995185;28;20435;-68
2024/03/30 07:35:56;;;;;;;0.90;0.70;;;22.40;54.10;;;;;;4995218;28;20408;-68
2024/03/30 07:38:26;;;;;;;1.00;0.70;;;22.50;54.20;;;;;;4995528;28;20411;-69
2024/03/30 07:40:52;;;;;;;1.30;0.70;;;22.50;54.20;;;;;;4994936;28;21123;-68
2024/03/30 07:43:17;;;;;;;0.90;0.70;;;22.50;54.30;;;;;;4995037;28;20503;-67
2024/03/30 07:45:43;;;;;;;1.13;0.60;;;22.50;54.30;;;;;;4995204;28;20173;-67
2024/03/30 07:48:09;;;;;;;1.00;0.80;;;22.50;54.20;;;;;;4994947;28;20177;-68
2024/03/30 07:50:34;;;;;;;0.80;0.60;;;22.50;54.20;;;;;;4995016;28;20312;-68
2024/03/30 07:53:02;;;;;;;0.80;0.60;;;22.50;54.20;;;;;;4994710;28;20551;-69
2024/03/30 07:55:28;;;;;;;0.97;0.60;;;22.50;54.20;;;;;;4994358;28;20184;-69
2024/03/30 07:57:54;;;;;;;0.80;0.70;;;22.50;54.20;;;;;;4994681;28;20416;-68
2024/03/30 08:00:20;;;;;;;1.10;0.80;;;22.50;54.20;;;;;;4994863;28;20467;-67
2024/03/30 08:02:46;;;;;;;1.10;0.70;;;22.50;54.20;;;;;;4995128;28;20425;-69
2024/03/30 08:05:11;;;;;;;0.93;0.70;;;22.60;54.30;;;;;;4995052;28;20252;-67
2024/03/30 08:07:37;;;;;;;0.80;0.60;;;22.60;54.20;;;;;;4995030;28;20177;-68
2024/03/30 08:10:03;;;;;;;1.03;0.70;;;22.60;54.30;;;;;;4977434;28;20706;-68
2024/03/30 08:12:28;;;;;;;0.90;0.63;;;22.60;54.20;;;;;;4994370;28;20598;-68
2024/03/30 08:14:54;;;;;;;0.90;0.70;;;22.60;54.20;;;;;;4994601;28;20409;-69
2024/03/30 08:17:19;;;;;;;1.00;0.70;;;22.60;54.20;;;;;;4994644;28;20184;-67
2024/03/30 08:19:45;;;;;;;0.90;0.70;;;22.60;54.20;;;;;;4994850;28;20208;-68
2024/03/30 08:22:11;;;;;;;1.00;0.70;;;22.60;54.20;;;;;;4995149;28;20177;-66
2024/03/30 08:24:36;;;;;;;0.93;0.70;;;22.60;54.20;;;;;;4976763;28;20652;-68
2024/03/30 08:27:04;;;;;;;0.97;0.70;;;22.60;54.20;;;;;;4976889;28;20264;-67
2024/03/30 08:29:29;;;;;;;0.90;0.70;;;22.60;54.20;;;;;;4994444;28;20534;-67
2024/03/30 08:31:55;;;;;;;1.00;0.77;;;22.60;54.20;;;;;;4994517;28;20423;-68
2024/03/30 08:34:21;;;;;;;0.87;0.60;;;22.60;54.20;;;;;;4994195;28;20914;-68
2024/03/30 08:36:46;;;;;;;1.00;0.80;;;22.70;54.30;;;;;;4994659;28;20185;-67
2024/03/30 08:39:12;;;;;;;0.80;0.60;;;22.60;54.20;;;;;;4994291;28;20173;-68
2024/03/30 08:41:38;;;;;;;0.80;0.60;;;22.60;54.20;;;;;;4994542;28;20220;-68
2024/03/30 08:44:05;;;;;;;1.00;0.60;;;22.60;54.20;;;;;;4994405;28;20212;-68
2024/03/30 08:46:30;;;;;;;1.00;0.83;;;22.70;54.30;;;;;;4994237;28;20196;-67
2024/03/30 08:49:06;;;;;;;0.90;0.70;;;22.70;54.20;;;;;;4994053;28;20479;-68
2024/03/30 08:51:32;;;;;;;0.90;0.60;;;22.70;54.20;;;;;;4993814;28;20580;-67
2024/03/30 08:54:05;;;;;;;0.90;0.70;;;22.70;54.20;;;;;;4996025;28;20413;-68
2024/03/30 08:56:32;;;;;;;0.90;0.70;;;22.70;54.20;;;;;;4994308;28;20420;-69
2024/03/30 08:58:58;;;;;;;0.87;0.60;;;22.70;54.20;;;;;;4994498;28;20795;-68
2024/03/30 09:01:24;;;;;;;1.47;0.70;;;22.70;54.20;;;;;;4993894;28;20787;-68
2024/03/30 09:03:50;;;;;;;1.10;0.70;;;22.70;54.20;;;;;;4994270;28;20177;-69
2024/03/30 09:06:17;;;;;;;0.90;0.60;;;22.70;54.20;;;;;;4993722;28;20416;-69
2024/03/30 09:08:43;;;;;;;0.90;0.80;;;22.70;54.20;;;;;;4992842;28;20447;-66
2024/03/30 09:11:09;;;;;;;0.90;0.70;;;22.70;54.20;;;;;;4993939;28;20462;-68
2024/03/30 09:13:35;;;;;;;0.80;0.60;;;22.70;54.20;;;;;;4993855;28;20470;-68
2024/03/30 09:16:00;;;;;;;0.80;0.60;;;22.70;54.20;;;;;;4993234;28;20417;-68
2024/03/30 09:18:26;;;;;;;0.90;0.60;;;22.70;54.20;;;;;;4993833;28;20706;-68
2024/03/30 09:20:51;;;;;;;0.90;0.70;;;22.70;54.20;;;;;;4993248;28;20667;-68
2024/03/30 09:23:17;;;;;;;0.90;0.70;;;22.70;54.20;;;;;;4993445;28;20169;-68
2024/03/30 09:25:43;;;;;;;0.90;0.70;;;22.70;54.40;;;;;;4993008;28;20173;-67
2024/03/30 09:28:08;;;;;;;1.10;0.70;;;22.70;54.20;;;;;;4993330;28;20307;-67
2024/03/30 09:30:34;;;;;;;0.90;0.70;;;22.70;54.20;;;;;;4993434;28;20205;-68
2024/03/30 09:33:00;;;;;;;1.40;0.80;;;22.70;54.20;;;;;;4975332;28;20185;-66
2024/03/30 09:35:26;;;;;;;0.90;0.70;;;22.70;54.20;;;;;;4991786;28;20184;-68
2024/03/30 09:37:52;;;;;;;0.90;0.60;;;22.70;54.20;;;;;;4992045;28;20455;-66
2024/03/30 09:40:17;;;;;;;0.90;0.60;;;22.70;54.20;;;;;;4991629;28;20205;-67
2024/03/30 09:42:45;;;;;;;0.90;0.70;;;22.70;54.20;;;;;;4991577;28;20187;-67
2024/03/30 09:45:12;;;;;;;0.80;0.60;;;22.70;54.20;;;;;;4991808;28;20211;-68
2024/03/30 09:47:42;;;;;;;0.80;0.60;;;22.70;54.30;;;;;;4991830;28;20444;-67
2024/03/30 09:50:10;;;;;;;0.90;0.60;;;22.70;54.20;;;;;;4991496;28;20463;-67
2024/03/30 09:52:39;;;;;;;1.00;0.63;;;22.70;54.20;;;;;;4992599;28;20462;-68
2024/03/30 09:55:10;;;;;;;0.90;0.60;;;22.70;54.20;;;;;;4992578;28;20420;-68
2024/03/30 09:57:40;;;;;;;0.90;0.80;;;22.70;54.30;;;;;;4975532;28;20900;-68
2024/03/30 10:00:09;;;;;;;0.90;0.60;;;22.70;54.20;;;;;;4992362;28;20463;-68
2024/03/30 10:02:35;;;;;;;0.90;0.60;;;22.70;54.20;;;;;;4992294;28;20424;-68
2024/03/30 10:05:01;;;;;;;0.90;0.60;;;22.70;54.20;;;;;;4991982;28;20475;-68
2024/03/30 10:07:37;;;;;;;0.90;0.70;;;22.70;54.20;;;;;;4992131;28;20180;-67
2024/03/30 10:10:14;;;;;;;1.00;0.70;;;22.70;54.20;;;;;;4992333;28;20199;-68
2024/03/30 10:12:58;;;;;;;0.87;0.63;;;22.70;54.20;;;;;;4991926;28;20420;-68
2024/03/30 10:15:34;;;;;;;0.90;0.70;;;22.70;54.30;;;;;;4974300;28;20438;-68
2024/03/30 10:17:59;;;;;;;0.90;0.60;;;22.70;54.30;;;;;;4992306;28;20403;-67
2024/03/30 10:20:25;;;;;;;1.20;0.70;;;22.70;54.30;;;;;;4991702;28;20462;-66
2024/03/30 10:22:51;;;;;;;0.97;0.80;;;22.70;54.30;;;;;;4991878;28;20275;-68
2024/03/30 10:25:18;;;;;;;0.80;0.60;;;22.70;54.30;;;;;;4991790;28;20179;-68
2024/03/30 10:27:45;;;;;;;1.23;0.80;;;22.70;54.30;;;;;;4992050;28;20199;-68
2024/03/30 10:30:11;;;;;;;0.90;0.70;;;22.70;54.30;;;;;;4991814;28;20448;-68
2024/03/30 10:32:40;;;;;;;1.37;0.70;;;22.70;54.30;;;;;;4991603;28;20425;-68
2024/03/30 10:35:08;;;;;;;0.90;0.70;;;22.70;54.30;;;;;;4991645;28;20184;-67
2024/03/30 10:37:36;;;;;;;0.90;0.60;;;22.70;54.30;;;;;;4991286;28;20428;-68
2024/03/30 10:40:09;;;;;;;1.20;0.70;;;22.70;54.30;;;;;;4991393;28;20900;-67
2024/03/30 10:42:35;;;;;;;0.93;0.77;;;22.70;54.30;;;;;;4991462;28;20415;-66
2024/03/30 10:45:02;;;;;;;0.80;0.63;;;22.60;54.20;;;;;;4991687;28;20503;-68
2024/03/30 10:47:29;;;;;;;0.90;0.60;;;22.60;54.20;;;;;;4991600;28;20855;-68
2024/03/30 10:49:58;;;;;;;1.00;0.70;;;22.60;54.20;;;;;;4991498;28;20468;-67
2024/03/30 10:52:27;;;;;;;1.00;0.60;;;22.60;54.20;;;;;;4991341;28;20450;-66
2024/03/30 10:54:54;;;;;;;0.90;0.73;;;22.60;54.20;;;;;;4991559;28;20412;-68
2024/03/30 10:57:21;;;;;;;0.97;0.60;;;22.60;54.20;;;;;;4991127;28;20412;-66
2024/03/30 10:59:49;;;;;;;0.90;0.60;;;22.60;54.20;;;;;;4991296;28;20941;-68
2024/03/30 11:02:22;;;;;;;0.90;0.60;;;22.70;54.30;;;;;;4973332;28;20578;-68
2024/03/30 11:04:52;;;;;;;0.80;0.60;;;22.60;54.20;;;;;;4991079;28;20409;-67
2024/03/30 11:07:18;;;;;;;1.10;0.70;;;22.70;54.40;;;;;;4973843;28;20784;-68
2024/03/30 11:09:45;;;;;;;0.80;0.70;;;22.60;54.20;;;;;;4991229;28;20950;-67
2024/03/30 11:12:12;;;;;;;0.80;0.60;;;22.70;54.30;;;;;;4991156;28;20408;-68
2024/03/30 11:14:38;;;;;;;0.80;0.60;;;22.70;54.30;;;;;;4991145;28;20404;-65
2024/03/30 11:17:38;;;;;;;1.00;0.80;;;22.60;54.30;;;;;;4991066;28;20793;-67
2024/03/30 11:20:13;;;;;;;1.00;0.70;;;22.70;54.30;;;;;;4991169;28;21153;-67
2024/03/30 11:23:03;;;;;;;0.80;0.60;;;22.60;54.30;;;;;;4991256;28;20790;-66
2024/03/30 11:25:30;;;;;;;0.90;0.70;;;22.60;54.20;;;;;;4990927;28;20397;-69
2024/03/30 11:28:04;;;;;;;0.97;0.70;;;22.60;54.30;;;;;;4990787;28;20418;-67
2024/03/30 11:30:36;;;;;;;0.90;0.70;;;22.60;54.30;;;;;;4991011;28;20938;-68
2024/03/30 11:33:19;;;;;;;0.90;0.70;;;22.60;54.20;;;;;;4994486;28;20420;-68
2024/03/30 11:35:55;;;;;;;0.90;0.70;;;22.60;54.30;;;;;;4994702;28;20400;-67
2024/03/30 11:38:25;;;;;;;0.80;0.60;;;22.60;54.30;;;;;;4994486;28;20391;-68
2024/03/30 11:41:02;;;;;;;0.97;0.63;;;22.60;54.30;;;;;;4994408;28;20467;-67
2024/03/30 11:43:45;;;;;;;0.80;0.60;;;22.60;54.30;;;;;;4994183;28;20404;-68
2024/03/30 11:46:12;;;;;;;0.90;0.70;;;22.60;54.30;;;;;;4993899;28;20942;-68
2024/03/30 11:48:40;;;;;;;0.90;0.63;;;22.60;54.30;;;;;;4994169;28;20420;-68
2024/03/30 11:51:15;;;;;;;0.90;0.67;;;22.60;54.30;;;;;;4994304;28;20448;-68
2024/03/30 11:53:41;;;;;;;1.20;0.90;;;22.60;54.30;;;;;;4994105;28;20439;-68
2024/03/30 11:56:09;;;;;;;0.90;0.60;;;22.60;54.30;;;;;;4994245;28;20427;-68
2024/03/30 11:58:35;;;;;;;1.00;0.80;;;22.60;54.30;;;;;;4994245;28;20183;-66
2024/03/30 12:01:00;;;;;;;0.90;0.70;;;22.60;54.30;;;;;;4993925;28;20460;-67
2024/03/30 12:03:28;;;;;;;1.03;0.80;;;22.60;54.30;;;;;;4994366;28;20227;-69
2024/03/30 12:05:56;;;;;;;0.90;0.70;;;22.60;54.90;;;;;;4994227;28;20845;-68
2024/03/30 12:08:23;;;;;;;1.20;0.80;;;22.60;54.90;;;;;;4976185;28;20416;-68
2024/03/30 12:11:04;;;;;;;0.90;0.67;;;22.60;54.30;;;;;;4993495;28;20444;-68
2024/03/30 12:13:39;;;;;;;0.90;0.70;;;22.60;54.30;;;;;;4993866;28;20459;-67
2024/03/30 12:16:06;;;;;;;1.40;0.77;;;22.60;54.30;;;;;;4993885;28;20424;-67
2024/03/30 12:18:31;;;;;;;0.90;0.70;;;22.60;54.30;;;;;;4976381;28;20424;-68
2024/03/30 12:20:57;;;;;;;1.27;0.73;;;22.60;54.30;;;;;;4993588;28;20468;-68
2024/03/30 12:23:24;;;;;;;0.80;0.63;;;22.60;54.30;;;;;;4993561;28;20841;-68
2024/03/30 12:25:50;;;;;;;0.80;0.60;;;22.60;54.30;;;;;;4993919;28;20180;-67
2024/03/30 12:28:17;;;;;;;1.00;0.60;;;22.60;54.30;;;;;;4993751;28;20423;-67
2024/03/30 12:30:46;;;;;;;0.90;0.60;;;22.60;54.30;;;;;;4993010;28;20440;-67
2024/03/30 12:33:12;;;;;;;1.10;0.70;;;22.60;54.30;;;;;;4993837;28;20978;-68
2024/03/30 12:35:39;;;;;;;1.00;0.70;;;22.60;54.30;;;;;;4993257;28;21008;-66
2024/03/30 12:38:06;;;;;;;1.03;0.70;;;22.60;54.30;;;;;;4993361;28;20813;-67
2024/03/30 12:40:33;;;;;;;0.90;0.60;;;22.60;54.30;;;;;;4993450;28;20529;-68
2024/03/30 12:43:02;;;;;;;0.80;0.60;;;22.60;54.30;;;;;;4993980;28;20404;-68
2024/03/30 12:45:30;;;;;;;1.10;0.70;;;22.60;54.30;;;;;;4993101;28;20425;-68
2024/03/30 12:47:56;;;;;;;0.80;0.50;;;22.60;54.30;;;;;;4993247;28;20462;-67
2024/03/30 12:50:26;;;;;;;0.90;0.60;;;22.60;54.30;;;;;;4993322;28;20459;-68